Time;durP1;ratioP1;P1;durP2;ratioP2;P2;SDS_P1;SDS_P2;PMS_P1;PMS_P2;Temp;Humidity;BMP_temperature;BMP_pressure;BME280_temperature;BME280_humidity;BME280_pressure;Samples;Min_cycle;Max_cycle;Signal;HPM_P1;HPM_P2
2023/11/27 00:01:43;;;;;;;5.07;2.10;;;5.10;99.90;;;;;;5093226;28;20036;-54
2023/11/27 00:04:09;;;;;;;6.30;1.90;;;5.10;99.90;;;;;;5093174;28;20449;-51
2023/11/27 00:06:34;;;;;;;8.90;2.20;;;5.10;99.90;;;;;;5093245;28;20107;-53
2023/11/27 00:09:00;;;;;;;6.00;2.17;;;5.10;99.90;;;;;;5092868;28;20120;-50
2023/11/27 00:11:25;;;;;;;4.60;1.80;;;5.20;99.90;;;;;;5092953;28;20048;-53
2023/11/27 00:13:51;;;;;;;7.70;2.23;;;5.20;99.90;;;;;;5093056;28;20039;-50
2023/11/27 00:16:17;;;;;;;4.60;1.83;;;5.10;99.90;;;;;;5082288;28;20028;-52
2023/11/27 00:18:46;;;;;;;5.93;2.60;;;5.10;99.90;;;;;;5072398;28;20375;-52
2023/11/27 00:21:13;;;;;;;4.93;1.98;;;5.10;99.90;;;;;;5072465;28;20059;-53
2023/11/27 00:23:39;;;;;;;11.13;2.33;;;5.00;99.90;;;;;;5072738;28;20020;-53
2023/11/27 00:26:06;;;;;;;5.23;1.90;;;5.00;99.90;;;;;;5072977;28;20036;-51
2023/11/27 00:28:32;;;;;;;6.17;2.50;;;5.00;99.90;;;;;;5072602;28;20117;-49
2023/11/27 00:30:58;;;;;;;4.87;2.30;;;5.00;99.90;;;;;;5072737;28;20052;-51
2023/11/27 00:33:24;;;;;;;7.33;2.40;;;5.00;99.90;;;;;;5072673;28;20488;-49
2023/11/27 00:35:49;;;;;;;6.70;2.60;;;5.00;99.90;;;;;;5054551;28;20036;-50
2023/11/27 00:38:16;;;;;;;5.67;3.17;;;4.90;99.90;;;;;;5054321;28;20031;-50
2023/11/27 00:40:42;;;;;;;4.70;2.00;;;5.00;99.90;;;;;;5054060;28;20032;-51
2023/11/27 00:43:08;;;;;;;7.27;2.87;;;5.00;99.90;;;;;;5054272;28;20035;-50
2023/11/27 00:45:34;;;;;;;9.80;2.73;;;5.00;99.90;;;;;;5072354;28;20485;-48
2023/11/27 00:48:00;;;;;;;10.27;3.30;;;5.00;99.90;;;;;;5072069;28;20029;-51
2023/11/27 00:50:27;;;;;;;9.63;2.33;;;5.00;99.90;;;;;;5053825;28;20035;-50
2023/11/27 00:52:52;;;;;;;5.20;2.37;;;5.00;99.90;;;;;;5054079;28;20032;-51
2023/11/27 00:55:18;;;;;;;8.30;2.40;;;5.10;99.90;;;;;;5054039;28;20075;-51
2023/11/27 00:57:45;;;;;;;6.83;2.60;;;5.00;99.90;;;;;;5071869;28;20111;-52
2023/11/27 01:00:11;;;;;;;7.17;2.47;;;5.00;99.90;;;;;;5053468;28;20032;-50
2023/11/27 01:02:39;;;;;;;4.87;2.30;;;5.00;99.90;;;;;;5071677;28;20553;-50
2023/11/27 01:05:07;;;;;;;5.90;2.40;;;5.00;99.90;;;;;;5054002;28;20119;-50
2023/11/27 01:07:33;;;;;;;7.30;2.57;;;5.00;99.90;;;;;;5071704;28;20145;-48
2023/11/27 01:09:59;;;;;;;12.43;2.60;;;5.00;99.90;;;;;;5071157;28;20029;-49
2023/11/27 01:12:25;;;;;;;9.37;3.00;;;4.90;99.90;;;;;;5053687;28;20043;-50
2023/11/27 01:14:51;;;;;;;9.80;2.70;;;5.00;99.90;;;;;;5071682;28;20033;-49
2023/11/27 01:17:16;;;;;;;9.27;2.60;;;4.90;99.90;;;;;;5053675;28;20060;-52
2023/11/27 01:19:43;;;;;;;11.97;2.90;;;4.90;99.90;;;;;;5053174;28;20492;-49
2023/11/27 01:22:08;;;;;;;5.77;2.60;;;4.80;99.90;;;;;;5071683;28;20074;-53
2023/11/27 01:24:34;;;;;;;4.63;2.40;;;4.80;99.90;;;;;;5053368;28;20554;-53
2023/11/27 01:27:00;;;;;;;4.60;1.90;;;4.70;99.90;;;;;;5053403;28;20025;-52
2023/11/27 01:29:26;;;;;;;11.03;3.40;;;4.70;99.90;;;;;;5070875;28;20064;-50
2023/11/27 01:31:51;;;;;;;6.20;2.93;;;4.80;99.90;;;;;;5071187;28;20082;-50
2023/11/27 01:34:18;;;;;;;6.13;2.70;;;4.70;99.90;;;;;;5071307;28;20418;-53
2023/11/27 01:36:43;;;;;;;10.00;3.70;;;4.70;99.90;;;;;;5071068;28;20090;-52
2023/11/27 01:39:09;;;;;;;8.13;3.07;;;4.70;99.90;;;;;;5052865;28;20037;-54
2023/11/27 01:41:35;;;;;;;10.27;3.27;;;4.60;99.90;;;;;;5052843;28;20115;-51
2023/11/27 01:44:01;;;;;;;9.63;2.63;;;4.60;99.90;;;;;;5071144;28;20078;-51
2023/11/27 01:46:29;;;;;;;7.77;3.27;;;4.60;99.90;;;;;;5053235;28;20493;-51
2023/11/27 01:48:56;;;;;;;9.27;2.60;;;4.60;99.90;;;;;;5052778;28;20021;-54
2023/11/27 01:51:23;;;;;;;10.97;2.63;;;4.60;99.90;;;;;;5070751;28;20035;-52
2023/11/27 01:53:51;;;;;;;8.00;3.50;;;4.60;99.90;;;;;;5070848;28;20025;-52
2023/11/27 01:56:19;;;;;;;7.37;2.77;;;4.60;99.90;;;;;;5070834;28;20028;-52
2023/11/27 01:58:46;;;;;;;9.57;3.43;;;4.60;99.90;;;;;;5052516;28;20031;-53
2023/11/27 02:01:11;;;;;;;8.97;3.13;;;4.60;99.90;;;;;;5052450;28;20024;-51
2023/11/27 02:03:37;;;;;;;8.93;3.40;;;4.60;99.90;;;;;;5052859;28;20397;-51
2023/11/27 02:06:03;;;;;;;9.60;3.53;;;4.60;99.90;;;;;;5052875;28;20078;-50
2023/11/27 02:08:31;;;;;;;9.57;3.20;;;4.60;99.90;;;;;;5084885;28;20431;-49
2023/11/27 02:10:57;;;;;;;7.03;2.93;;;4.60;99.90;;;;;;5072474;28;20069;-49
2023/11/27 02:13:24;;;;;;;9.03;3.67;;;4.50;99.90;;;;;;5072752;28;20028;-54
2023/11/27 02:15:51;;;;;;;8.40;4.43;;;4.50;99.90;;;;;;5072756;28;20032;-53
2023/11/27 02:18:18;;;;;;;13.77;4.20;;;4.50;99.90;;;;;;5090723;28;20028;-55
2023/11/27 02:20:44;;;;;;;8.43;3.13;;;4.60;99.90;;;;;;5071931;28;20032;-53
2023/11/27 02:23:17;;;;;;;12.50;3.67;;;4.60;99.90;;;;;;5072582;28;20583;-48
2023/11/27 02:25:43;;;;;;;13.37;3.90;;;4.60;99.90;;;;;;5072517;28;20145;-49
2023/11/27 02:28:09;;;;;;;8.13;3.73;;;4.50;99.90;;;;;;5072771;28;20548;-51
2023/11/27 02:30:36;;;;;;;9.57;4.20;;;4.50;99.90;;;;;;5072245;28;20545;-53
2023/11/27 02:33:02;;;;;;;11.10;4.43;;;4.50;99.90;;;;;;5072563;28;20032;-49
2023/11/27 02:35:28;;;;;;;11.93;3.60;;;4.50;99.90;;;;;;5090835;28;20572;-52
2023/11/27 02:37:53;;;;;;;9.63;4.60;;;4.50;99.90;;;;;;5090639;28;20032;-54
2023/11/27 02:40:19;;;;;;;9.47;3.87;;;4.50;99.90;;;;;;5090127;28;20400;-48
2023/11/27 02:42:45;;;;;;;10.23;4.20;;;4.50;99.90;;;;;;5072446;28;20411;-50
2023/11/27 02:45:11;;;;;;;10.70;3.67;;;4.50;99.90;;;;;;5072612;28;20016;-52
2023/11/27 02:47:37;;;;;;;9.53;3.67;;;4.50;99.90;;;;;;5090626;28;20392;-51
2023/11/27 02:50:05;;;;;;;8.33;3.37;;;4.50;99.90;;;;;;5090200;28;20032;-53
2023/11/27 02:52:31;;;;;;;7.40;3.67;;;4.60;99.90;;;;;;5090670;28;20515;-51
2023/11/27 02:54:58;;;;;;;9.00;3.83;;;4.60;99.90;;;;;;5090524;28;20502;-53
2023/11/27 02:57:24;;;;;;;10.90;4.23;;;4.50;99.90;;;;;;5072594;28;20523;-49
2023/11/27 02:59:50;;;;;;;7.77;3.37;;;4.50;99.90;;;;;;5072228;28;20111;-51
2023/11/27 03:02:15;;;;;;;8.33;3.37;;;4.40;99.90;;;;;;5072632;28;20396;-53
2023/11/27 03:04:42;;;;;;;10.30;4.10;;;4.50;99.90;;;;;;5072630;28;20024;-51
2023/11/27 03:07:08;;;;;;;11.53;3.53;;;4.50;99.90;;;;;;5072492;28;20055;-49
2023/11/27 03:09:34;;;;;;;8.13;3.40;;;4.50;99.90;;;;;;5071878;28;20060;-50
2023/11/27 03:12:00;;;;;;;7.17;2.67;;;4.60;99.90;;;;;;5072408;28;20438;-52
2023/11/27 03:14:26;;;;;;;9.77;3.53;;;4.50;99.90;;;;;;5072342;28;20047;-52
2023/11/27 03:16:52;;;;;;;8.43;3.73;;;4.50;99.90;;;;;;5090473;28;20032;-53
2023/11/27 03:19:18;;;;;;;6.33;3.40;;;4.50;99.90;;;;;;5071677;28;20084;-53
2023/11/27 03:21:43;;;;;;;9.53;3.53;;;4.50;99.90;;;;;;5090278;28;20405;-53
2023/11/27 03:24:09;;;;;;;8.20;3.87;;;4.50;99.90;;;;;;5072104;28;20020;-51
2023/11/27 03:26:35;;;;;;;8.03;2.80;;;4.50;99.90;;;;;;5072330;28;20409;-53
2023/11/27 03:29:01;;;;;;;8.10;2.90;;;4.50;99.90;;;;;;5071818;28;20024;-52
2023/11/27 03:31:27;;;;;;;5.90;2.97;;;4.60;99.90;;;;;;5089998;28;20380;-53
2023/11/27 03:33:53;;;;;;;6.57;2.63;;;4.60;99.90;;;;;;5074195;28;20032;-54
2023/11/27 03:36:18;;;;;;;12.50;3.33;;;4.60;99.90;;;;;;5075462;28;20043;-52
2023/11/27 03:38:44;;;;;;;7.30;3.13;;;4.60;99.90;;;;;;5075242;28;20120;-51
2023/11/27 03:41:23;;;;;;;9.03;2.73;;;4.50;99.90;;;;;;5075176;28;20155;-52
2023/11/27 03:43:49;;;;;;;9.48;2.92;;;4.60;99.90;;;;;;5075510;28;20035;-50
2023/11/27 03:46:15;;;;;;;6.63;2.90;;;4.60;99.90;;;;;;5058729;28;20024;-51
2023/11/27 03:48:41;;;;;;;5.87;2.50;;;4.50;99.90;;;;;;5075167;28;20031;-52
2023/11/27 03:51:07;;;;;;;5.50;2.67;;;4.50;99.90;;;;;;5074983;28;20069;-52
2023/11/27 03:53:33;;;;;;;5.67;2.83;;;4.50;99.90;;;;;;5075258;28;20036;-53
2023/11/27 03:55:59;;;;;;;4.67;2.37;;;4.50;99.90;;;;;;5093456;28;20103;-55
2023/11/27 03:58:25;;;;;;;6.03;2.47;;;4.50;99.90;;;;;;5093159;28;20028;-51
2023/11/27 04:00:52;;;;;;;6.43;2.57;;;4.40;99.90;;;;;;5074855;28;20032;-53
2023/11/27 04:03:19;;;;;;;6.27;2.20;;;4.40;99.90;;;;;;5075017;28;20480;-50
2023/11/27 04:05:44;;;;;;;3.90;1.90;;;4.30;99.90;;;;;;5074861;28;20038;-52
2023/11/27 04:08:10;;;;;;;5.27;1.97;;;4.40;99.90;;;;;;5074737;28;20032;-50
2023/11/27 04:10:36;;;;;;;6.53;2.70;;;4.40;99.90;;;;;;5092624;28;20107;-51
2023/11/27 04:13:02;;;;;;;5.57;1.73;;;4.40;99.90;;;;;;5093103;28;20020;-50
2023/11/27 04:15:29;;;;;;;9.47;2.40;;;4.30;99.90;;;;;;5074901;28;20039;-49
2023/11/27 04:17:55;;;;;;;5.50;2.20;;;4.30;99.90;;;;;;5092866;28;20039;-49
2023/11/27 04:20:21;;;;;;;7.30;2.10;;;4.30;99.90;;;;;;5074046;28;20032;-53
2023/11/27 04:22:47;;;;;;;8.73;2.50;;;4.30;99.90;;;;;;5074765;28;20031;-53
2023/11/27 04:25:17;;;;;;;4.80;2.33;;;4.30;99.90;;;;;;5074851;28;20024;-49
2023/11/27 04:27:42;;;;;;;5.83;2.73;;;4.30;99.90;;;;;;5092825;28;20107;-50
2023/11/27 04:30:08;;;;;;;4.00;2.17;;;4.30;99.90;;;;;;5092338;28;20397;-49
2023/11/27 04:32:34;;;;;;;12.53;2.80;;;4.20;99.90;;;;;;5093175;28;20035;-51
2023/11/27 04:34:59;;;;;;;5.80;2.20;;;4.20;99.90;;;;;;5092549;28;20188;-48
2023/11/27 04:37:25;;;;;;;7.13;2.40;;;4.20;99.90;;;;;;5092713;28;20063;-50
2023/11/27 04:39:51;;;;;;;6.17;2.40;;;4.20;99.90;;;;;;5092296;28;20032;-51
2023/11/27 04:42:20;;;;;;;6.77;2.23;;;4.20;99.90;;;;;;5092538;28;20074;-48
2023/11/27 04:44:46;;;;;;;5.03;2.30;;;4.20;99.90;;;;;;5092230;28;20060;-51
2023/11/27 04:47:12;;;;;;;7.03;2.60;;;4.10;99.90;;;;;;5092507;28;20341;-53
2023/11/27 04:49:37;;;;;;;5.10;2.40;;;4.10;99.90;;;;;;5092295;28;20020;-49
2023/11/27 04:52:04;;;;;;;6.50;2.03;;;4.10;99.90;;;;;;5092281;28;20032;-51
2023/11/27 04:54:30;;;;;;;6.37;2.43;;;4.20;99.90;;;;;;5092456;28;20040;-51
2023/11/27 04:56:56;;;;;;;7.63;2.70;;;4.10;99.90;;;;;;5092300;28;20096;-48
2023/11/27 04:59:22;;;;;;;5.43;2.47;;;4.10;99.90;;;;;;5091653;28;20035;-49
2023/11/27 05:01:48;;;;;;;6.80;2.53;;;4.10;99.90;;;;;;5092077;28;20032;-48
2023/11/27 05:04:17;;;;;;;6.20;2.80;;;4.10;99.90;;;;;;5091914;28;20073;-50
2023/11/27 05:06:44;;;;;;;5.13;2.45;;;4.10;99.90;;;;;;5092074;28;20048;-50
2023/11/27 05:09:12;;;;;;;7.73;2.93;;;4.10;99.90;;;;;;5091742;28;20325;-51
2023/11/27 05:11:38;;;;;;;9.13;2.60;;;4.10;99.90;;;;;;5073688;28;20081;-52
2023/11/27 05:14:04;;;;;;;6.33;3.47;;;4.10;99.90;;;;;;5092143;28;20392;-51
2023/11/27 05:16:30;;;;;;;6.70;3.00;;;4.10;99.90;;;;;;5091754;28;20040;-52
2023/11/27 05:18:55;;;;;;;7.83;3.10;;;4.10;99.90;;;;;;5091588;28;20040;-54
2023/11/27 05:21:21;;;;;;;7.40;3.73;;;4.10;99.90;;;;;;5091814;28;20154;-54
2023/11/27 05:23:47;;;;;;;12.13;3.60;;;4.00;99.90;;;;;;5091731;28;20040;-49
2023/11/27 05:26:13;;;;;;;10.87;3.77;;;4.10;99.90;;;;;;5091750;28;20040;-53
2023/11/27 05:28:40;;;;;;;10.30;3.93;;;4.10;99.90;;;;;;5091548;28;20435;-53
2023/11/27 05:31:06;;;;;;;7.73;3.87;;;4.00;99.90;;;;;;5082204;28;20040;-53
2023/11/27 05:33:33;;;;;;;6.97;3.67;;;4.10;99.90;;;;;;5070519;28;20033;-51
2023/11/27 05:35:59;;;;;;;10.27;4.60;;;4.00;99.90;;;;;;5070676;28;20044;-54
2023/11/27 05:38:25;;;;;;;8.30;4.03;;;4.00;99.90;;;;;;5069843;28;20032;-51
2023/11/27 05:40:51;;;;;;;7.70;3.60;;;4.00;99.90;;;;;;5071806;28;20032;-53
2023/11/27 05:43:17;;;;;;;10.03;4.23;;;4.00;99.90;;;;;;5077845;28;20024;-54
2023/11/27 05:45:45;;;;;;;8.30;3.67;;;4.00;99.90;;;;;;5074306;28;20016;-53
2023/11/27 05:48:12;;;;;;;8.67;3.73;;;3.90;99.90;;;;;;5082816;28;20111;-54
2023/11/27 05:50:41;;;;;;;6.87;3.60;;;3.90;99.90;;;;;;5079847;28;20063;-53
2023/11/27 05:53:08;;;;;;;7.73;3.70;;;3.90;99.90;;;;;;5076113;28;20032;-51
2023/11/27 05:55:34;;;;;;;9.97;4.13;;;3.90;99.90;;;;;;5083247;28;20025;-53
2023/11/27 05:57:59;;;;;;;5.07;2.47;;;3.90;99.90;;;;;;5068090;28;20058;-54
2023/11/27 06:00:25;;;;;;;5.33;3.07;;;3.80;99.90;;;;;;5076999;28;20465;-49
2023/11/27 06:02:52;;;;;;;7.00;3.40;;;3.80;99.90;;;;;;5075516;28;20028;-51
2023/11/27 06:05:18;;;;;;;9.30;4.07;;;3.70;99.90;;;;;;5077763;28;20040;-50
2023/11/27 06:07:45;;;;;;;8.30;2.93;;;3.80;99.90;;;;;;5072368;28;20021;-54
2023/11/27 06:10:12;;;;;;;10.43;4.83;;;3.70;99.90;;;;;;5081830;28;20124;-50
2023/11/27 06:12:37;;;;;;;6.97;2.70;;;3.70;99.90;;;;;;5080872;28;20040;-52
2023/11/27 06:15:03;;;;;;;7.43;3.57;;;3.70;99.90;;;;;;5082019;28;20036;-51
2023/11/27 06:17:29;;;;;;;9.10;4.27;;;3.70;99.90;;;;;;5080817;28;20100;-49
2023/11/27 06:19:54;;;;;;;6.57;3.03;;;3.60;99.90;;;;;;5081026;28;20047;-50
2023/11/27 06:22:20;;;;;;;5.80;3.37;;;3.60;99.90;;;;;;5060220;28;20059;-51
2023/11/27 06:24:47;;;;;;;7.17;2.60;;;3.60;99.90;;;;;;5084259;28;20116;-53
2023/11/27 06:27:13;;;;;;;12.10;3.10;;;3.60;99.90;;;;;;5080783;28;20039;-55
2023/11/27 06:29:38;;;;;;;8.70;3.80;;;3.60;99.90;;;;;;5080894;28;20060;-52
2023/11/27 06:32:04;;;;;;;6.83;3.13;;;3.60;99.90;;;;;;5081877;28;20115;-51
2023/11/27 06:34:30;;;;;;;8.20;3.27;;;3.60;99.90;;;;;;5080172;28;20035;-56
2023/11/27 06:36:55;;;;;;;9.77;3.53;;;3.60;99.90;;;;;;5072999;28;20037;-55
2023/11/27 06:39:21;;;;;;;12.13;4.97;;;3.60;99.90;;;;;;5076466;28;20024;-54
2023/11/27 06:41:47;;;;;;;12.40;4.00;;;3.60;99.90;;;;;;5059237;28;20477;-53
2023/11/27 06:44:17;;;;;;;8.33;3.13;;;3.60;99.90;;;;;;5079452;28;20034;-51
2023/11/27 06:46:45;;;;;;;8.03;2.40;;;3.60;99.90;;;;;;5075100;28;20046;-56
2023/11/27 06:49:11;;;;;;;7.20;3.20;;;3.60;99.90;;;;;;5074697;28;20029;-54
2023/11/27 06:51:37;;;;;;;9.37;4.17;;;3.50;99.90;;;;;;5072610;28;20389;-53
2023/11/27 06:54:03;;;;;;;9.10;3.27;;;3.60;99.90;;;;;;5078425;28;20610;-53
2023/11/27 06:56:33;;;;;;;7.47;3.40;;;3.60;99.90;;;;;;5078236;28;20450;-52
2023/11/27 06:59:03;;;;;;;;;;;3.60;99.90;;;;;;5075336;28;20047;-48
2023/11/27 07:01:29;;;;;;;6.73;3.00;;;3.60;99.90;;;;;;5081373;28;20344;-52
2023/11/27 07:03:58;;;;;;;7.93;3.83;;;3.60;99.90;;;;;;5085874;28;20036;-52
2023/11/27 07:06:25;;;;;;;7.78;3.03;;;3.60;99.90;;;;;;5078503;28;20051;-53
2023/11/27 07:08:51;;;;;;;7.27;3.10;;;3.70;99.90;;;;;;5082081;28;20451;-54
2023/11/27 07:11:17;;;;;;;8.50;3.17;;;3.70;99.90;;;;;;5089226;28;20039;-55
2023/11/27 07:13:43;;;;;;;6.43;3.30;;;3.70;99.90;;;;;;5085685;28;20114;-55
2023/11/27 07:16:09;;;;;;;2.13;1.43;;;3.60;99.90;;;;;;5064570;28;20032;-52
2023/11/27 07:18:35;;;;;;;4.13;2.50;;;3.70;99.90;;;;;;5063365;28;20078;-55
2023/11/27 07:21:00;;;;;;;4.20;2.40;;;3.60;99.90;;;;;;5080153;28;20063;-56
2023/11/27 07:23:27;;;;;;;4.43;2.43;;;3.60;99.90;;;;;;5083542;28;20056;-52
2023/11/27 07:25:53;;;;;;;8.70;4.40;;;3.60;99.90;;;;;;5073319;28;20111;-54
2023/11/27 07:28:19;;;;;;;8.70;3.93;;;3.60;99.90;;;;;;5089502;28;20159;-53
2023/11/27 07:30:46;;;;;;;6.03;2.83;;;3.60;99.90;;;;;;5081950;28;20143;-51
2023/11/27 07:33:12;;;;;;;8.40;3.17;;;3.60;99.90;;;;;;5081913;28;20521;-54
2023/11/27 07:35:41;;;;;;;10.83;3.27;;;3.60;99.90;;;;;;5082786;28;20116;-55
2023/11/27 07:38:07;;;;;;;6.90;3.90;;;3.60;99.90;;;;;;5087734;28;20033;-55
2023/11/27 07:40:34;;;;;;;7.90;3.93;;;3.60;99.90;;;;;;5081509;28;20035;-54
2023/11/27 07:43:00;;;;;;;5.90;3.27;;;3.60;99.90;;;;;;5080411;28;20048;-52
2023/11/27 07:45:26;;;;;;;4.27;1.77;;;3.60;99.90;;;;;;5089753;28;20020;-55
2023/11/27 07:47:52;;;;;;;5.90;2.60;;;3.60;99.90;;;;;;5073238;28;20021;-54
2023/11/27 07:50:18;;;;;;;5.17;2.83;;;3.60;99.90;;;;;;5081188;28;20023;-55
2023/11/27 07:52:43;;;;;;;4.20;2.00;;;3.60;99.90;;;;;;5081308;28;20032;-55
2023/11/27 07:55:12;;;;;;;6.77;3.33;;;3.60;99.90;;;;;;5081393;28;20024;-55
2023/11/27 07:57:38;;;;;;;6.68;3.05;;;3.50;99.90;;;;;;5089618;28;20154;-52
2023/11/27 08:00:11;;;;;;;9.50;3.00;;;3.50;99.90;;;;;;5081020;28;20062;-55
2023/11/27 08:02:44;;;;;;;6.40;3.13;;;3.50;99.90;;;;;;5081517;28;20021;-56
2023/11/27 08:05:09;;;;;;;8.13;3.03;;;3.50;99.90;;;;;;5081933;28;20485;-56
2023/11/27 08:07:35;;;;;;;7.23;3.17;;;3.50;99.90;;;;;;5073523;28;20020;-50
2023/11/27 08:10:03;;;;;;;5.87;1.80;;;3.50;99.90;;;;;;5088445;28;20024;-54
2023/11/27 08:12:29;;;;;;;5.30;2.63;;;3.50;99.90;;;;;;5089834;28;20128;-51
2023/11/27 08:14:54;;;;;;;2.23;1.27;;;3.50;99.90;;;;;;5081066;28;20051;-51
2023/11/27 08:17:20;;;;;;;4.43;2.07;;;3.50;99.90;;;;;;5088765;28;20530;-52
2023/11/27 08:19:46;;;;;;;5.93;2.27;;;3.50;99.90;;;;;;5083367;28;20060;-55
2023/11/27 08:22:11;;;;;;;5.97;2.00;;;3.50;99.90;;;;;;5086854;28;20124;-51
2023/11/27 08:24:40;;;;;;;4.70;2.37;;;3.50;99.90;;;;;;5079574;28;20025;-53
2023/11/27 08:27:06;;;;;;;8.10;2.23;;;3.50;99.90;;;;;;5067178;28;20036;-56
2023/11/27 08:29:32;;;;;;;3.47;1.80;;;3.50;99.90;;;;;;5083456;28;20407;-53
2023/11/27 08:31:59;;;;;;;2.80;1.50;;;3.50;99.90;;;;;;5084417;28;20031;-57
2023/11/27 08:34:25;;;;;;;4.77;2.47;;;3.50;99.90;;;;;;5083866;28;20028;-53
2023/11/27 08:36:51;;;;;;;5.60;2.30;;;3.50;99.90;;;;;;5081088;28;20044;-52
2023/11/27 08:39:17;;;;;;;2.60;1.63;;;3.50;99.90;;;;;;5086871;28;20120;-53
2023/11/27 08:41:43;;;;;;;3.40;1.83;;;3.50;99.90;;;;;;5090526;28;20032;-52
2023/11/27 08:44:09;;;;;;;3.00;1.67;;;3.50;99.90;;;;;;5080535;28;20028;-54
2023/11/27 08:46:37;;;;;;;3.37;1.50;;;3.50;99.90;;;;;;5088513;28;20020;-55
2023/11/27 08:49:04;;;;;;;3.90;1.70;;;3.40;99.90;;;;;;5071893;28;20020;-56
2023/11/27 08:51:30;;;;;;;5.07;2.63;;;3.40;99.90;;;;;;5082891;28;20036;-54
2023/11/27 08:53:56;;;;;;;2.50;1.57;;;3.50;99.90;;;;;;5074566;28;20482;-56
2023/11/27 08:56:23;;;;;;;4.53;2.33;;;3.50;99.90;;;;;;5086453;28;20084;-51
2023/11/27 08:58:48;;;;;;;2.70;1.20;;;3.60;99.90;;;;;;5068947;28;20449;-53
2023/11/27 09:01:17;;;;;;;3.13;1.77;;;3.60;99.90;;;;;;5094744;28;20052;-53
2023/11/27 09:03:43;;;;;;;4.00;1.73;;;3.50;99.90;;;;;;5082102;28;20492;-52
2023/11/27 09:06:09;;;;;;;2.93;1.63;;;3.40;99.90;;;;;;5079793;28;20048;-53
2023/11/27 09:08:39;;;;;;;3.43;1.47;;;3.40;99.90;;;;;;5071140;28;20035;-52
2023/11/27 09:11:06;;;;;;;2.78;1.48;;;3.30;99.90;;;;;;5078386;28;20017;-54
2023/11/27 09:13:32;;;;;;;4.93;1.93;;;3.30;99.90;;;;;;5070889;28;20627;-53
2023/11/27 09:15:58;;;;;;;1.73;1.17;;;3.20;99.90;;;;;;5074619;28;20024;-55
2023/11/27 09:18:24;;;;;;;4.13;1.47;;;3.20;99.90;;;;;;5090873;28;20028;-52
2023/11/27 09:20:50;;;;;;;3.80;2.00;;;3.20;99.90;;;;;;5071712;28;20060;-55
2023/11/27 09:23:16;;;;;;;3.67;1.83;;;3.20;99.90;;;;;;5085028;28;20068;-54
2023/11/27 09:25:42;;;;;;;3.73;2.07;;;3.20;99.90;;;;;;5081222;28;20035;-57
2023/11/27 09:28:07;;;;;;;4.80;1.80;;;3.20;99.90;;;;;;5083535;28;20028;-53
2023/11/27 09:30:34;;;;;;;4.43;1.53;;;3.20;99.90;;;;;;5081329;28;20032;-52
2023/11/27 09:33:01;;;;;;;3.50;1.87;;;3.30;99.90;;;;;;5087109;28;20028;-50
2023/11/27 09:35:26;;;;;;;3.13;1.90;;;3.30;99.90;;;;;;5077367;28;20510;-52
2023/11/27 09:37:52;;;;;;;3.80;1.93;;;3.30;99.90;;;;;;5071901;28;20066;-57
2023/11/27 09:40:19;;;;;;;5.63;1.77;;;3.30;99.90;;;;;;5084288;28;20028;-54
2023/11/27 09:42:45;;;;;;;4.40;1.50;;;3.30;99.90;;;;;;5090412;28;20032;-53
2023/11/27 09:45:11;;;;;;;6.13;1.83;;;3.30;99.90;;;;;;5082408;28;20465;-57
2023/11/27 09:47:43;;;;;;;5.63;1.70;;;3.30;99.90;;;;;;5091024;28;20024;-54
2023/11/27 09:50:13;;;;;;;3.90;2.10;;;3.30;99.90;;;;;;5090618;28;20031;-54
2023/11/27 09:52:49;;;;;;;21.00;9.10;;;3.30;99.90;;;;;;5082200;28;20100;-53
2023/11/27 09:55:18;;;;;;;6.10;2.07;;;3.30;99.90;;;;;;5070223;28;20381;-56
2023/11/27 09:57:46;;;;;;;4.85;2.40;;;3.40;99.90;;;;;;5069947;28;20141;-53
2023/11/27 10:00:13;;;;;;;3.03;1.53;;;3.30;99.90;;;;;;5069770;28;20024;-52
2023/11/27 10:02:39;;;;;;;3.77;1.70;;;3.30;99.90;;;;;;5078545;28;20116;-53
2023/11/27 10:05:05;;;;;;;4.30;2.03;;;3.30;99.90;;;;;;5090290;28;20505;-56
2023/11/27 10:07:34;;;;;;;12.17;5.47;;;3.30;99.90;;;;;;5074864;28;20387;-52
2023/11/27 10:10:07;;;;;;;2.17;1.40;;;3.40;99.90;;;;;;5078127;28;20020;-54
2023/11/27 10:12:35;;;;;;;1.90;1.13;;;3.40;99.90;;;;;;5051772;28;20559;-51
2023/11/27 10:15:11;;;;;;;1.67;1.07;;;3.40;99.90;;;;;;5089839;28;20433;-54
2023/11/27 10:17:38;;;;;;;3.17;1.73;;;3.30;99.90;;;;;;5073993;28;20040;-56
2023/11/27 10:20:04;;;;;;;4.23;2.10;;;3.30;99.90;;;;;;5069371;28;20150;-55
2023/11/27 10:22:32;;;;;;;3.33;1.47;;;3.30;99.90;;;;;;5069978;28;20051;-57
2023/11/27 10:25:00;;;;;;;3.50;1.90;;;3.30;99.90;;;;;;5069586;28;20029;-53
2023/11/27 10:27:26;;;;;;;1.23;0.97;;;3.30;99.90;;;;;;5076021;28;20446;-51
2023/11/27 10:29:52;;;;;;;4.00;1.67;;;3.30;99.90;;;;;;5071264;28;20100;-52
2023/11/27 10:32:22;;;;;;;2.47;1.40;;;3.30;99.90;;;;;;5083586;28;20273;-51
2023/11/27 10:34:49;;;;;;;4.33;1.60;;;3.30;99.90;;;;;;5089904;28;20034;-53
2023/11/27 10:37:16;;;;;;;3.33;1.60;;;3.20;99.90;;;;;;5090462;28;20100;-54
2023/11/27 10:39:42;;;;;;;3.30;1.20;;;3.20;99.90;;;;;;5089128;28;20110;-54
2023/11/27 10:42:11;;;;;;;3.73;1.70;;;3.20;99.90;;;;;;5082961;28;20123;-52
2023/11/27 10:44:37;;;;;;;1.30;0.65;;;3.30;99.90;;;;;;5094057;28;20027;-56
2023/11/27 10:47:10;;;;;;;2.93;1.50;;;3.30;99.90;;;;;;5094204;28;20036;-57
2023/11/27 10:49:40;;;;;;;3.87;1.90;;;3.30;99.90;;;;;;5093686;28;20429;-59
2023/11/27 10:52:09;;;;;;;3.33;0.93;;;3.30;99.90;;;;;;5081977;28;20029;-56
2023/11/27 10:54:38;;;;;;;2.30;1.37;;;3.30;99.90;;;;;;5082156;28;20034;-56
2023/11/27 10:57:04;;;;;;;3.92;1.08;;;3.30;99.90;;;;;;5081984;28;20425;-55
2023/11/27 10:59:34;;;;;;;3.67;1.50;;;3.30;99.90;;;;;;5080012;28;20032;-56
2023/11/27 11:02:04;;;;;;;2.65;1.42;;;3.20;99.90;;;;;;5083014;28;20420;-56
2023/11/27 11:04:50;;;;;;;2.67;1.53;;;3.20;99.90;;;;;;5080022;28;20024;-54
2023/11/27 11:07:20;;;;;;;2.83;1.73;;;3.20;99.90;;;;;;5081028;28;20090;-54
2023/11/27 11:09:49;;;;;;;3.40;1.40;;;3.30;99.90;;;;;;5081476;28;20029;-56
2023/11/27 11:12:21;;;;;;;4.17;1.60;;;3.20;99.90;;;;;;5073391;28;20020;-53
2023/11/27 11:14:48;;;;;;;2.23;1.40;;;3.20;99.90;;;;;;5081769;28;20535;-53
2023/11/27 11:17:51;;;;;;;2.00;1.03;;;3.30;99.90;;;;;;5073113;28;20436;-55
2023/11/27 11:20:30;;;;;;;1.53;0.97;;;3.30;99.90;;;;;;5077843;28;20043;-57
2023/11/27 11:23:20;;;;;;;2.25;1.40;;;3.30;99.90;;;;;;5084737;28;20040;-56
2023/11/27 11:26:23;;;;;;;2.67;1.60;;;3.30;99.90;;;;;;5085201;28;20035;-52
2023/11/27 11:29:11;;;;;;;6.00;1.43;;;3.30;99.90;;;;;;5084550;28;20067;-56
2023/11/27 11:32:08;;;;;;;1.53;1.10;;;3.30;99.90;;;;;;5081447;28;20035;-56
2023/11/27 11:34:38;;;;;;;3.30;1.30;;;3.30;99.90;;;;;;5076905;28;20040;-56
2023/11/27 11:37:06;;;;;;;2.33;1.30;;;3.30;99.90;;;;;;5083980;28;20036;-56
2023/11/27 11:39:33;;;;;;;3.73;1.60;;;3.30;99.90;;;;;;5084747;28;20028;-56
2023/11/27 11:42:03;;;;;;;1.97;1.10;;;3.40;99.90;;;;;;5082992;28;20036;-53
2023/11/27 11:44:35;;;;;;;2.80;1.60;;;3.30;99.90;;;;;;5081496;28;20021;-55
2023/11/27 11:47:28;;;;;;;3.53;1.37;;;3.40;99.90;;;;;;5083697;28;20027;-54
2023/11/27 11:50:27;;;;;;;2.20;1.30;;;3.40;99.90;;;;;;5079382;28;20075;-55
2023/11/27 11:52:55;;;;;;;3.50;1.50;;;3.40;99.90;;;;;;5081800;28;20029;-50
2023/11/27 11:55:33;;;;;;;2.73;1.67;;;3.50;99.90;;;;;;5078939;28;20036;-55
2023/11/27 11:58:17;;;;;;;2.53;1.40;;;3.50;99.90;;;;;;5082374;28;20080;-56
2023/11/27 12:00:43;;;;;;;4.07;1.67;;;3.50;99.90;;;;;;5083982;28;20559;-56
2023/11/27 12:03:15;;;;;;;5.27;1.50;;;3.50;99.90;;;;;;5081225;28;20067;-56
2023/11/27 12:05:49;;;;;;;2.67;1.47;;;3.50;99.90;;;;;;5080791;28;20021;-51
2023/11/27 12:08:18;;;;;;;2.67;1.47;;;3.60;99.90;;;;;;5080940;28;20377;-55
2023/11/27 12:10:45;;;;;;;3.92;1.95;;;3.60;99.90;;;;;;5072224;28;20036;-56
2023/11/27 12:13:11;;;;;;;3.10;1.63;;;3.60;99.90;;;;;;5081067;28;20522;-56
2023/11/27 12:15:37;;;;;;;2.93;1.43;;;3.60;99.90;;;;;;5079214;28;20044;-56
2023/11/27 12:18:08;;;;;;;2.63;1.50;;;3.60;99.90;;;;;;5082134;28;20107;-51
2023/11/27 12:20:37;;;;;;;5.50;2.00;;;3.60;99.90;;;;;;5077814;28;20376;-56
2023/11/27 12:23:06;;;;;;;3.60;1.88;;;3.60;99.90;;;;;;5074783;28;20039;-51
2023/11/27 12:25:31;;;;;;;2.33;1.60;;;3.60;99.90;;;;;;5077831;28;20013;-50
2023/11/27 12:27:58;;;;;;;3.20;1.70;;;3.60;99.90;;;;;;5073126;28;20585;-50
2023/11/27 12:30:23;;;;;;;2.07;1.13;;;3.60;99.90;;;;;;5091630;28;20024;-54
2023/11/27 12:32:53;;;;;;;2.10;1.53;;;3.60;99.90;;;;;;5091958;28;20365;-55
2023/11/27 12:35:20;;;;;;;3.80;2.08;;;3.60;99.90;;;;;;5073523;28;20221;-54
2023/11/27 12:37:48;;;;;;;3.67;2.00;;;3.60;99.90;;;;;;5083684;28;20043;-51
2023/11/27 12:40:18;;;;;;;3.40;1.60;;;3.60;99.90;;;;;;5082896;28;20020;-52
2023/11/27 12:42:45;;;;;;;3.50;1.80;;;3.60;99.90;;;;;;5091817;28;20128;-51
2023/11/27 12:45:12;;;;;;;3.27;1.80;;;3.70;99.90;;;;;;5080668;28;20128;-55
2023/11/27 12:47:38;;;;;;;3.93;1.93;;;3.70;99.90;;;;;;5086643;28;20047;-51
2023/11/27 12:50:16;;;;;;;4.20;1.87;;;3.60;99.90;;;;;;5091531;28;20280;-54
2023/11/27 12:52:45;;;;;;;6.10;2.03;;;3.60;99.90;;;;;;5091815;28;20365;-54
2023/11/27 12:55:12;;;;;;;5.28;2.28;;;3.70;99.90;;;;;;5082994;28;20032;-52
2023/11/27 12:57:39;;;;;;;3.90;2.33;;;3.70;99.90;;;;;;5076852;28;20028;-55